Time;durP1;ratioP1;P1;durP2;ratioP2;P2;SDS_P1;SDS_P2;PMS_P1;PMS_P2;Temp;Humidity;BMP_temperature;BMP_pressure;BME280_temperature;BME280_humidity;BME280_pressure;Samples;Min_cycle;Max_cycle;Signal;HPM_P1;HPM_P2
2023/06/20 00:01:37;;;;;;;17.27;8.70;;;;;;;22.36;100.00;99376.81;12208467;19;20007;-80
2023/06/20 00:05:39;;;;;;;16.75;9.27;;;;;;;22.03;100.00;99387.88;12183203;19;20078;-79
2023/06/20 00:09:41;;;;;;;12.77;8.80;;;;;;;21.75;100.00;99379.88;12206455;19;20011;-79
2023/06/20 00:13:43;;;;;;;14.43;9.17;;;;;;;21.58;100.00;99365.91;12204320;19;20011;-79
2023/06/20 00:17:45;;;;;;;14.27;10.17;;;;;;;21.44;100.00;99373.69;12186326;19;20025;-79
2023/06/20 00:21:46;;;;;;;11.17;9.47;;;;;;;21.33;100.00;99376.00;12213718;19;20069;-79
2023/06/20 00:25:48;;;;;;;14.03;10.40;;;;;;;21.23;100.00;99379.97;12217134;19;20333;-79
2023/06/20 00:29:50;;;;;;;14.57;10.67;;;;;;;21.16;100.00;99374.03;12198460;19;20074;-79
2023/06/20 00:33:52;;;;;;;14.90;10.80;;;;;;;21.10;100.00;99380.97;12223383;19;20117;-80
2023/06/20 00:37:54;;;;;;;13.07;11.07;;;;;;;21.09;100.00;99379.31;12220887;19;20003;-80
2023/06/20 00:41:56;;;;;;;15.30;11.10;;;;;;;21.05;100.00;99372.72;12199343;19;20014;-81
2023/06/20 00:45:58;;;;;;;14.13;11.60;;;;;;;21.02;100.00;99387.41;12221000;19;20006;-80
2023/06/20 00:50:00;;;;;;;13.90;11.77;;;;;;;20.97;100.00;99382.81;12195537;19;20010;-80
2023/06/20 00:54:02;;;;;;;15.87;12.27;;;;;;;20.93;100.00;99395.78;12214284;19;20003;-80
2023/06/20 00:58:04;;;;;;;14.67;11.00;;;;;;;20.89;100.00;99390.03;12215385;19;20002;-80
2023/06/20 01:02:06;;;;;;;13.32;11.48;;;;;;;20.88;100.00;99398.75;12192713;19;20032;-80
2023/06/20 01:06:33;;;;;;;18.17;11.93;;;;;;;20.86;100.00;99415.91;12213648;19;20034;-80
2023/06/20 01:10:54;;;;;;;15.45;11.88;;;;;;;20.85;100.00;99405.00;12215057;19;20028;-79
2023/06/20 01:15:17;;;;;;;17.83;11.82;;;;;;;20.77;100.00;99366.66;12192198;19;20058;-79
2023/06/20 01:19:43;;;;;;;15.50;12.30;;;;;;;20.69;100.00;99343.06;12211671;19;20664;-79
2023/06/20 01:24:00;;;;;;;15.70;12.75;;;;;;;20.61;100.00;99366.28;12190835;19;20017;-79
2023/06/20 01:28:26;;;;;;;19.63;12.93;;;;;;;20.61;100.00;99352.28;12211741;19;20797;-79
2023/06/20 01:32:32;;;;;;;19.17;12.93;;;;;;;20.56;100.00;99358.88;12188547;19;20491;-80
2023/06/20 01:36:37;;;;;;;19.55;12.30;;;;;;;20.58;100.00;99364.97;12212960;19;20015;-79
2023/06/20 01:40:41;;;;;;;16.77;12.52;;;;;;;20.56;100.00;99374.84;12216283;19;20062;-80
2023/06/20 01:44:46;;;;;;;18.80;13.82;;;;;;;20.53;100.00;99378.31;12244956;19;20084;-79
2023/06/20 01:48:51;;;;;;;21.77;12.77;;;;;;;20.48;100.00;99380.06;12223731;19;20487;-80
2023/06/20 01:52:54;;;;;;;16.48;12.38;;;;;;;20.47;100.00;99384.03;12220189;19;20028;-80
2023/06/20 01:56:59;;;;;;;18.30;11.82;;;;;;;20.52;100.00;99393.41;12195461;19;20019;-80
2023/06/20 02:01:02;;;;;;;21.83;12.77;;;;;;;20.53;100.00;99389.50;12211262;19;20606;-80
2023/06/20 02:05:07;;;;;;;16.27;12.63;;;;;;;20.53;100.00;99387.53;12188624;19;20011;-79
2023/06/20 02:09:10;;;;;;;14.10;11.57;;;;;;;20.51;100.00;99386.16;12211542;19;20010;-80
2023/06/20 02:13:13;;;;;;;15.05;11.98;;;;;;;20.49;100.00;99378.94;12211430;19;20023;-81
2023/06/20 02:17:16;;;;;;;15.45;11.13;;;;;;;20.45;100.00;99388.28;12192377;19;20002;-80
2023/06/20 02:21:22;;;;;;;16.30;11.43;;;;;;;20.43;100.00;99388.59;12210531;19;20010;-80
2023/06/20 02:25:31;;;;;;;15.15;11.57;;;;;;;20.40;100.00;99383.66;12213141;19;20025;-80
2023/06/20 02:29:37;;;;;;;16.50;12.15;;;;;;;20.38;100.00;99380.38;12189842;19;20014;-80
2023/06/20 02:33:41;;;;;;;14.80;11.65;;;;;;;20.38;100.00;99382.38;12218803;19;20014;-79
2023/06/20 02:37:44;;;;;;;17.48;12.80;;;;;;;20.38;100.00;99372.00;12224583;19;20015;-80
2023/06/20 02:41:45;;;;;;;13.63;10.10;;;;;;;20.37;100.00;99364.72;12201369;19;20018;-81
2023/06/20 02:45:54;;;;;;;15.13;11.43;;;;;;;20.36;100.00;99363.09;12221739;19;20023;-80
2023/06/20 02:50:22;;;;;;;17.63;11.88;;;;;;;20.30;100.00;99372.78;12212726;19;20010;-80
2023/06/20 02:54:53;;;;;;;16.63;11.68;;;;;;;20.30;100.00;99375.59;12216082;19;20380;-80
2023/06/20 02:58:56;;;;;;;14.98;11.43;;;;;;;20.29;100.00;99379.53;12213054;19;20018;-80
2023/06/20 03:03:09;;;;;;;15.77;12.38;;;;;;;20.26;100.00;99380.19;12193635;19;20018;-80
2023/06/20 03:07:11;;;;;;;16.00;11.98;;;;;;;20.23;100.00;99376.06;12214425;19;20009;-80
2023/06/20 03:11:13;;;;;;;15.15;11.30;;;;;;;20.18;100.00;99376.22;12191877;19;20016;-80
2023/06/20 03:15:15;;;;;;;15.83;12.27;;;;;;;20.12;100.00;99363.53;12212047;19;20042;-81
2023/06/20 03:19:17;;;;;;;18.13;11.90;;;;;;;20.04;100.00;99373.53;12214577;19;20003;-80
2023/06/20 03:23:20;;;;;;;15.93;12.27;;;;;;;19.90;100.00;99384.00;12190518;19;20086;-81
2023/06/20 03:27:22;;;;;;;15.50;11.60;;;;;;;19.79;100.00;99372.28;12209755;19;20008;-81
2023/06/20 03:31:23;;;;;;;19.00;13.17;;;;;;;19.76;100.00;99400.06;12212169;19;20023;-81
2023/06/20 03:35:25;;;;;;;17.10;12.27;;;;;;;19.75;100.00;99390.00;12189545;19;20395;-80
2023/06/20 03:39:29;;;;;;;16.05;11.70;;;;;;;19.74;100.00;99386.38;12207127;19;20419;-81
2023/06/20 03:43:31;;;;;;;14.10;10.57;;;;;;;19.73;100.00;99392.31;12209658;19;20006;-81
2023/06/20 03:47:33;;;;;;;18.63;12.45;;;;;;;19.72;100.00;99410.22;12190453;19;20010;-80
2023/06/20 03:51:34;;;;;;;17.40;13.23;;;;;;;19.72;100.00;99422.25;12211167;19;20496;-80
2023/06/20 03:55:39;;;;;;;14.65;11.45;;;;;;;19.75;100.00;99409.56;12210594;19;20010;-80
2023/06/20 03:59:41;;;;;;;18.02;12.60;;;;;;;19.76;100.00;99397.25;12198501;19;20021;-81
2023/06/20 04:03:43;;;;;;;18.73;12.52;;;;;;;19.74;100.00;99403.16;12221716;19;20010;-80
2023/06/20 04:07:45;;;;;;;16.97;12.27;;;;;;;19.73;100.00;99403.50;12221671;19;20011;-80
2023/06/20 04:11:47;;;;;;;17.23;12.88;;;;;;;19.77;100.00;99387.72;12199603;19;20220;-80
2023/06/20 04:15:48;;;;;;;19.40;12.63;;;;;;;19.89;100.00;99404.72;12220153;19;20133;-80
2023/06/20 04:19:50;;;;;;;22.17;14.03;;;;;;;19.98;100.00;99399.97;12221210;19;20010;-81
2023/06/20 04:23:53;;;;;;;18.95;12.77;;;;;;;20.04;100.00;99398.69;12201802;19;20469;-81
2023/06/20 04:27:56;;;;;;;15.52;11.65;;;;;;;20.05;100.00;99396.75;12220008;19;20011;-81
2023/06/20 04:32:07;;;;;;;18.42;13.35;;;;;;;20.00;100.00;99403.28;12200423;19;20007;-81
2023/06/20 04:36:13;;;;;;;17.65;13.25;;;;;;;19.97;100.00;99394.72;12240101;19;20045;-80
2023/06/20 04:40:17;;;;;;;17.30;13.25;;;;;;;19.96;100.00;99401.47;12226656;19;20006;-80
2023/06/20 04:44:19;;;;;;;18.30;13.10;;;;;;;19.96;100.00;99405.09;12203115;19;20661;-80
2023/06/20 04:48:26;;;;;;;17.97;12.50;;;;;;;20.01;100.00;99407.72;12224454;19;20036;-80
2023/06/20 04:52:32;;;;;;;19.65;13.45;;;;;;;20.09;100.00;99405.31;12222798;19;20046;-80
2023/06/20 04:56:40;;;;;;;18.52;13.18;;;;;;;20.09;100.00;99408.94;12199080;19;20356;-79
2023/06/20 05:00:42;;;;;;;17.08;12.88;;;;;;;20.05;100.00;99407.94;12221144;19;20787;-80
2023/06/20 05:04:44;;;;;;;18.17;13.93;;;;;;;20.06;100.00;99414.34;12225857;19;20003;-80
2023/06/20 05:08:46;;;;;;;20.17;13.85;;;;;;;20.10;100.00;99412.53;12198159;19;20044;-80
2023/06/20 05:12:47;;;;;;;18.47;13.63;;;;;;;20.13;100.00;99411.88;12224423;19;20013;-81
2023/06/20 05:16:49;;;;;;;20.80;15.05;;;;;;;20.19;100.00;99414.22;12219842;19;20007;-80
2023/06/20 05:20:53;;;;;;;20.10;14.23;;;;;;;20.24;100.00;99410.47;12195570;19;20007;-80
2023/06/20 05:24:54;;;;;;;19.60;14.32;;;;;;;20.30;100.00;99419.53;12220972;19;20018;-80
2023/06/20 05:28:56;;;;;;;15.60;13.50;;;;;;;20.35;100.00;99413.78;12210927;19;20022;-78
2023/06/20 05:32:59;;;;;;;19.38;13.82;;;;;;;20.39;100.00;99420.38;12191083;19;20015;-77
2023/06/20 05:37:01;;;;;;;23.65;15.38;;;;;;;20.44;100.00;99414.66;12209695;19;20032;-80
2023/06/20 05:41:03;;;;;;;23.00;15.80;;;;;;;20.53;100.00;99425.91;12183906;19;20063;-77
2023/06/20 05:45:07;;;;;;;25.50;16.85;;;;;;;20.60;100.00;99417.81;12190422;19;20413;-79
2023/06/20 05:49:14;;;;;;;22.90;16.30;;;;;;;20.68;100.00;99431.84;12215244;19;20490;-79
2023/06/20 05:53:20;;;;;;;20.27;14.75;;;;;;;20.75;100.00;99430.53;12188302;19;20003;-80
2023/06/20 05:57:22;;;;;;;20.38;14.70;;;;;;;20.79;100.00;99429.56;12215106;19;20018;-79
2023/06/20 06:01:25;;;;;;;19.00;13.20;;;;;;;20.85;100.00;99431.06;12217598;19;20002;-78
2023/06/20 06:05:29;;;;;;;21.27;14.70;;;;;;;20.96;100.00;99436.31;12194866;19;20002;-77
2023/06/20 06:09:33;;;;;;;20.42;13.73;;;;;;;21.06;100.00;99433.19;12216804;19;20007;-78
2023/06/20 06:13:35;;;;;;;19.00;13.00;;;;;;;21.15;100.00;99425.63;12218464;19;20015;-79
2023/06/20 06:17:37;;;;;;;18.98;13.38;;;;;;;21.26;100.00;99435.34;12193603;19;20017;-78
2023/06/20 06:21:38;;;;;;;17.13;12.37;;;;;;;21.39;100.00;99440.00;12214552;19;20519;-78
2023/06/20 06:25:44;;;;;;;;;;;;;;;21.53;100.00;99439.78;12215662;19;20007;-77
2023/06/20 06:29:46;;;;;;;14.90;11.57;;;;;;;21.72;100.00;99442.25;12191067;19;20321;-80
2023/06/20 06:33:48;;;;;;;15.43;11.37;;;;;;;21.87;100.00;99449.31;12214598;19;20529;-83
2023/06/20 06:37:52;;;;;;;15.20;12.48;;;;;;;22.01;100.00;99449.94;12218027;19;20017;-81
2023/06/20 06:41:55;;;;;;;15.70;11.95;;;;;;;22.21;100.00;99448.38;12195739;19;20010;-81
2023/06/20 06:45:57;;;;;;;;;;;;;;;22.36;100.00;99461.03;12213073;19;20007;-83
2023/06/20 06:49:59;;;;;;;17.05;11.95;;;;;;;22.59;100.00;99460.78;12201363;19;19926;-81
2023/06/20 06:54:07;;;;;;;13.60;11.38;;;;;;;22.80;100.00;99463.63;12213765;19;20002;-81
2023/06/20 06:58:09;;;;;;;16.02;12.52;;;;;;;22.98;100.00;99465.19;12215814;19;20011;-81
2023/06/20 07:02:11;;;;;;;14.23;10.10;;;;;;;23.23;100.00;99465.31;12195792;19;20007;-81
2023/06/20 07:06:13;;;;;;;12.53;9.60;;;;;;;23.50;100.00;99463.94;12216843;19;20062;-82
2023/06/20 07:10:14;;;;;;;19.47;11.90;;;;;;;23.64;100.00;99464.47;12218802;19;20650;-82
2023/06/20 07:14:20;;;;;;;15.43;11.68;;;;;;;23.88;100.00;99463.75;12195736;19;20151;-81
2023/06/20 07:18:21;;;;;;;14.55;11.25;;;;;;;24.05;100.00;99452.31;12229798;19;20014;-82
2023/06/20 07:22:29;;;;;;;15.75;11.15;;;;;;;24.31;100.00;99449.19;12222786;19;20761;-82
2023/06/20 07:26:31;;;;;;;12.73;10.10;;;;;;;24.61;100.00;99459.44;12195869;19;20017;-82
2023/06/20 07:30:33;;;;;;;14.88;11.48;;;;;;;24.85;100.00;99459.41;12212490;19;20392;-82
2023/06/20 07:34:36;;;;;;;14.50;10.93;;;;;;;25.02;100.00;99441.44;12217693;19;20504;-83
2023/06/20 07:38:38;;;;;;;16.30;11.60;;;;;;;25.22;100.00;99462.19;12196526;19;20507;-83
2023/06/20 07:42:40;;;;;;;14.38;11.60;;;;;;;25.40;100.00;99448.63;12215624;19;20524;-83
2023/06/20 07:46:42;;;;;;;16.10;12.10;;;;;;;25.54;100.00;99448.22;12218262;19;20026;-84
2023/06/20 07:50:44;;;;;;;14.93;12.17;;;;;;;25.69;100.00;99436.97;12188643;19;20007;-83
2023/06/20 07:54:45;;;;;;;15.93;12.23;;;;;;;25.88;100.00;99433.50;12209640;19;20259;-83
2023/06/20 07:58:47;;;;;;;14.68;12.73;;;;;;;26.05;100.00;99429.50;12213880;19;20010;-84
2023/06/20 08:02:51;;;;;;;15.88;13.10;;;;;;;26.30;100.00;99438.63;12190324;19;20032;-85
2023/06/20 08:06:56;;;;;;;15.20;12.18;;;;;;;26.48;100.00;99435.44;12213622;19;20010;-84
2023/06/20 08:10:58;;;;;;;16.35;12.40;;;;;;;26.24;100.00;99433.63;12196889;19;20347;-85
2023/06/20 08:15:00;;;;;;;15.93;13.15;;;;;;;26.18;100.00;99435.09;12208871;19;20007;-85
2023/06/20 08:19:01;;;;;;;18.08;12.68;;;;;;;26.25;100.00;99438.91;12211584;19;20025;-85
2023/06/20 08:23:03;;;;;;;15.15;12.35;;;;;;;26.42;100.00;99432.06;12189058;19;20011;-85
2023/06/20 08:27:07;;;;;;;16.80;13.98;;;;;;;26.64;97.98;99424.13;12211803;19;20539;-84
2023/06/20 08:31:09;;;;;;;16.88;11.57;;;;;;;26.91;96.90;99431.63;12228384;19;20021;-84
2023/06/20 08:35:11;;;;;;;16.88;12.65;;;;;;;27.06;92.61;99432.78;12229118;19;20006;-85
2023/06/20 08:39:15;;;;;;;14.18;11.05;;;;;;;27.22;89.78;99436.41;12229793;19;20014;-84
2023/06/20 08:43:18;;;;;;;15.70;12.80;;;;;;;27.00;90.59;99429.41;12231805;19;20011;-85
2023/06/20 08:47:20;;;;;;;;;;;;;;;27.05;88.30;99431.16;12214643;19;20053;-84
2023/06/20 08:51:26;;;;;;;14.93;12.15;;;;;;;27.10;87.01;99433.69;12231437;19;20014;-82
2023/06/20 08:55:32;;;;;;;15.00;12.48;;;;;;;27.26;85.25;99430.84;12230103;19;20650;-84
2023/06/20 08:59:36;;;;;;;16.55;13.07;;;;;;;27.75;83.01;99435.03;12206427;19;20102;-84
2023/06/20 09:03:38;;;;;;;14.70;12.30;;;;;;;28.23;79.62;99432.72;12226886;19;20014;-84
2023/06/20 09:07:41;;;;;;;13.80;12.30;;;;;;;28.45;76.80;99426.25;12227240;19;20052;-84
2023/06/20 09:11:52;;;;;;;17.15;13.93;;;;;;;28.02;77.68;99427.50;12207053;19;20035;-85
2023/06/20 09:16:04;;;;;;;16.40;12.50;;;;;;;27.85;77.75;99423.97;12229052;19;20508;-84
2023/06/20 09:20:07;;;;;;;20.65;11.43;;;;;;;28.17;76.24;99427.41;12206135;19;20133;-84
2023/06/20 09:24:09;;;;;;;13.57;11.80;;;;;;;28.60;73.16;99418.81;12227549;19;20011;-83
2023/06/20 09:28:15;;;;;;;18.23;14.27;;;;;;;28.94;68.86;99427.41;12225156;19;20007;-83
2023/06/20 09:32:21;;;;;;;16.85;12.23;;;;;;;29.18;70.02;99404.31;12202113;19;20067;-84
2023/06/20 09:36:28;;;;;;;12.77;10.80;;;;;;;29.23;64.18;99403.13;12224488;19;20007;-83
2023/06/20 09:40:44;;;;;;;11.38;9.77;;;;;;;29.53;61.93;99401.06;12221920;19;20007;-84
2023/06/20 09:44:47;;;;;;;12.43;9.77;;;;;;;29.82;61.34;99400.59;12214231;19;20010;-84
2023/06/20 09:48:49;;;;;;;11.20;10.00;;;;;;;30.02;60.66;99395.53;12225321;19;20015;-83
2023/06/20 09:53:02;;;;;;;12.63;9.95;;;;;;;30.03;59.64;99394.31;12226219;19;20011;-84
2023/06/20 09:57:08;;;;;;;12.10;10.13;;;;;;;30.29;57.16;99384.84;12198887;19;20010;-84
2023/06/20 10:01:14;;;;;;;14.15;9.75;;;;;;;30.55;56.31;99396.03;12219728;19;20027;-82
2023/06/20 10:05:18;;;;;;;11.70;9.02;;;;;;;30.68;54.68;99399.34;12198127;19;20480;-82
2023/06/20 10:09:21;;;;;;;13.85;9.20;;;;;;;30.90;54.08;99399.50;12219230;19;20014;-83
2023/06/20 10:13:25;;;;;;;12.00;9.55;;;;;;;31.23;53.04;99396.41;12214953;19;20010;-82
2023/06/20 10:17:34;;;;;;;11.88;9.30;;;;;;;31.53;50.53;99403.91;12195254;19;20021;-80
2023/06/20 10:21:58;;;;;;;11.70;9.45;;;;;;;31.53;49.93;99403.91;12218013;19;20006;-81
2023/06/20 10:26:03;;;;;;;12.98;9.88;;;;;;;31.57;50.47;99404.75;12194275;19;20013;-82
2023/06/20 10:30:07;;;;;;;10.20;9.00;;;;;;;31.43;49.45;99387.59;12216452;19;20084;-82
2023/06/20 10:34:34;;;;;;;12.30;8.02;;;;;;;31.48;48.73;99396.56;12216507;19;20101;-83
2023/06/20 10:38:59;;;;;;;11.60;9.77;;;;;;;31.74;47.13;99384.03;12197099;19;20091;-79
2023/06/20 10:43:08;;;;;;;10.18;8.90;;;;;;;32.13;46.92;99377.59;12219441;19;20010;-82
2023/06/20 10:47:10;;;;;;;9.80;8.80;;;;;;;32.40;46.51;99377.19;12193270;19;20528;-81
2023/06/20 10:51:13;;;;;;;12.00;9.88;;;;;;;32.74;45.16;99379.63;12215394;19;20006;-82
2023/06/20 10:55:22;;;;;;;10.60;9.02;;;;;;;32.57;43.26;99381.28;12214611;19;20067;-79
2023/06/20 10:59:24;;;;;;;12.38;10.13;;;;;;;32.03;46.29;99384.09;12191785;19;20436;-79
2023/06/20 11:03:27;;;;;;;11.05;9.50;;;;;;;32.38;45.05;99388.19;12210376;19;20038;-80
2023/06/20 11:07:32;;;;;;;10.45;9.13;;;;;;;32.62;44.22;99381.69;12213724;19;20351;-78
2023/06/20 11:11:51;;;;;;;10.85;9.57;;;;;;;32.94;43.49;99383.66;12191752;19;20011;-79
2023/06/20 11:15:54;;;;;;;10.82;9.43;;;;;;;33.31;42.77;99377.41;12211795;19;20364;-79
2023/06/20 11:19:56;;;;;;;11.13;9.65;;;;;;;33.24;42.10;99370.94;12212888;19;20022;-80
2023/06/20 11:23:59;;;;;;;;;;;;;;;32.72;42.74;99360.09;12193491;19;20014;-80
2023/06/20 11:28:13;;;;;;;10.57;9.40;;;;;;;32.98;44.04;99355.09;12213931;19;19910;-80
2023/06/20 11:32:16;;;;;;;11.00;8.68;;;;;;;33.53;39.37;99363.91;12192887;19;20011;-79
2023/06/20 11:36:17;;;;;;;12.05;9.27;;;;;;;33.95;39.77;99355.47;12211348;19;19999;-79
2023/06/20 11:40:22;;;;;;;9.90;8.88;;;;;;;34.36;38.57;99358.44;12213170;19;20006;-79
2023/06/20 11:44:25;;;;;;;11.77;10.18;;;;;;;34.44;38.59;99342.78;12188769;19;20003;-78
2023/06/20 11:48:28;;;;;;;10.13;9.13;;;;;;;34.47;37.53;99346.88;12210637;19;20011;-79
2023/06/20 11:52:34;;;;;;;10.13;9.02;;;;;;;34.38;37.81;99338.78;12209859;19;20010;-78
2023/06/20 11:56:36;;;;;;;9.48;8.57;;;;;;;34.77;37.15;99340.44;12188222;19;20021;-79
2023/06/20 12:00:38;;;;;;;11.15;9.95;;;;;;;34.88;36.10;99344.00;12205217;19;20011;-81
2023/06/20 12:04:43;;;;;;;10.65;9.18;;;;;;;34.80;35.97;99328.16;12207062;19;20019;-79
2023/06/20 12:08:53;;;;;;;10.02;9.02;;;;;;;35.02;35.56;99328.72;12182045;19;20003;-79
2023/06/20 12:12:55;;;;;;;11.40;8.77;;;;;;;34.41;36.28;99331.41;12204272;19;20659;-79
2023/06/20 12:16:56;;;;;;;8.90;8.00;;;;;;;34.43;35.66;99326.06;12208729;19;20045;-78
2023/06/20 12:20:58;;;;;;;10.75;9.05;;;;;;;35.38;34.23;99313.97;12193778;19;20018;-78
2023/06/20 12:25:05;;;;;;;10.65;9.55;;;;;;;36.55;33.44;99310.47;12219155;19;20002;-79
2023/06/20 12:29:08;;;;;;;10.63;8.77;;;;;;;37.76;31.49;99307.09;12199752;19;20011;-79
2023/06/20 12:33:11;;;;;;;9.48;8.25;;;;;;;37.85;30.45;99297.88;12219035;19;20098;-79
2023/06/20 12:37:13;;;;;;;9.68;8.68;;;;;;;37.57;30.27;99297.31;12224276;19;20017;-79
2023/06/20 12:41:17;;;;;;;11.25;9.15;;;;;;;37.32;30.56;99292.09;12199246;19;20010;-79
2023/06/20 12:45:19;;;;;;;9.98;9.00;;;;;;;37.95;29.98;99293.94;12219216;19;20053;-79
2023/06/20 12:49:22;;;;;;;10.07;9.07;;;;;;;38.04;29.03;99294.09;12215516;19;20014;-81
2023/06/20 12:53:27;;;;;;;9.27;8.23;;;;;;;38.32;29.47;99294.63;12197769;19;20007;-79
2023/06/20 12:57:32;;;;;;;8.77;7.90;;;;;;;39.37;27.86;99281.81;12218397;19;20341;-79
2023/06/20 13:01:33;;;;;;;8.70;7.78;;;;;;;40.21;26.90;99270.81;12216537;19;20006;-78
2023/06/20 13:05:36;;;;;;;11.27;7.88;;;;;;;41.07;25.12;99258.25;12199040;19;20007;-79
2023/06/20 13:09:38;;;;;;;8.65;7.68;;;;;;;41.63;24.52;99255.19;12218938;19;20002;-79
2023/06/20 13:13:40;;;;;;;7.97;7.18;;;;;;;41.83;23.43;99251.06;12217962;19;20014;-78
2023/06/20 13:17:43;;;;;;;8.00;6.95;;;;;;;42.40;23.42;99245.75;12196557;19;20479;-78
2023/06/20 13:21:45;;;;;;;7.65;6.85;;;;;;;42.89;22.48;99256.34;12220040;19;20090;-78
2023/06/20 13:25:47;;;;;;;8.15;7.28;;;;;;;43.37;22.07;99247.88;12217431;19;20003;-79
2023/06/20 13:29:51;;;;;;;9.32;6.82;;;;;;;43.92;21.88;99241.81;12192905;19;20373;-78
2023/06/20 13:33:53;;;;;;;8.05;6.65;;;;;;;44.00;20.82;99244.38;12220193;19;20472;-80
2023/06/20 13:37:57;;;;;;;7.78;6.97;;;;;;;43.28;20.71;99242.09;12220987;19;20010;-82
2023/06/20 13:41:59;;;;;;;7.47;6.63;;;;;;;42.75;21.01;99245.44;12196195;19;20038;-79
2023/06/20 13:46:03;;;;;;;7.20;6.50;;;;;;;42.83;20.82;99251.69;12215943;19;20014;-79
2023/06/20 13:50:05;;;;;;;7.50;6.78;;;;;;;41.25;22.53;99246.78;12194594;19;20014;-79
2023/06/20 13:54:08;;;;;;;7.32;6.60;;;;;;;39.45;24.49;99247.81;12216994;19;20134;-79
2023/06/20 13:58:10;;;;;;;8.23;7.07;;;;;;;38.77;25.12;99246.97;12218792;19;20042;-79
2023/06/20 14:02:12;;;;;;;7.50;6.60;;;;;;;41.07;23.33;99240.91;12188489;19;20501;-78
2023/06/20 14:06:13;;;;;;;7.63;6.53;;;;;;;42.16;21.95;99238.94;12215390;19;20018;-78
2023/06/20 14:10:17;;;;;;;9.13;6.60;;;;;;;40.47;23.00;99241.88;12212985;19;20010;-79
2023/06/20 14:14:19;;;;;;;7.15;6.45;;;;;;;39.02;23.98;99237.59;12188869;19;20571;-79
2023/06/20 14:18:23;;;;;;;6.90;6.07;;;;;;;38.33;24.71;99243.66;12212262;19;20024;-78
2023/06/20 14:22:25;;;;;;;6.68;5.95;;;;;;;39.69;23.98;99226.00;12210433;19;20081;-78
2023/06/20 14:26:30;;;;;;;9.77;5.90;;;;;;;41.64;22.26;99221.28;12193488;19;20035;-80
2023/06/20 14:30:34;;;;;;;7.13;5.55;;;;;;;43.01;20.78;99206.06;12216164;19;20007;-79
2023/06/20 14:34:37;;;;;;;6.80;5.53;;;;;;;44.09;19.98;99207.41;12213175;19;20084;-80
2023/06/20 14:38:41;;;;;;;5.82;5.22;;;;;;;44.96;18.44;99209.41;12191774;19;20015;-81
2023/06/20 14:42:43;;;;;;;5.65;5.05;;;;;;;44.98;18.19;99195.97;12214568;19;20488;-80
2023/06/20 14:46:45;;;;;;;6.18;4.65;;;;;;;45.04;18.02;99181.53;12213976;19;20002;-81
2023/06/20 14:50:47;;;;;;;4.78;4.35;;;;;;;45.23;16.94;99187.94;12194113;19;20030;-79
2023/06/20 14:54:51;;;;;;;4.53;4.13;;;;;;;45.24;17.48;99187.41;12215770;19;20038;-80
2023/06/20 14:58:53;;;;;;;8.65;5.70;;;;;;;44.26;17.89;99184.50;12218088;19;20006;-80
2023/06/20 15:02:57;;;;;;;5.25;4.63;;;;;;;42.69;19.01;99192.28;12190457;19;20006;-79
2023/06/20 15:06:58;;;;;;;6.70;4.97;;;;;;;41.34;20.03;99196.88;12213743;19;20006;-80
2023/06/20 15:11:01;;;;;;;8.70;4.93;;;;;;;40.75;20.42;99185.16;12194491;19;20007;-80
2023/06/20 15:15:05;;;;;;;7.25;4.70;;;;;;;41.11;20.07;99175.94;12212104;19;20502;-82
2023/06/20 15:19:07;;;;;;;8.82;5.05;;;;;;;42.28;19.26;99172.22;12213078;19;20015;-79
2023/06/20 15:23:10;;;;;;;6.60;5.22;;;;;;;42.17;19.59;99163.19;12195373;19;20014;-80
2023/06/20 15:27:13;;;;;;;10.55;5.78;;;;;;;40.54;20.21;99163.66;12214224;19;20027;-79
2023/06/20 15:31:16;;;;;;;6.90;5.55;;;;;;;38.66;22.25;99178.16;12211980;19;20027;-79
2023/06/20 15:35:18;;;;;;;9.02;6.28;;;;;;;37.55;23.25;99166.78;12192578;19;20003;-79
2023/06/20 15:39:20;;;;;;;8.07;6.22;;;;;;;36.93;24.20;99158.78;12212597;19;20010;-79
2023/06/20 15:43:22;;;;;;;11.05;5.90;;;;;;;36.49;24.85;99157.25;12212208;19;20516;-78
2023/06/20 15:47:24;;;;;;;8.60;6.75;;;;;;;36.03;25.54;99158.97;12187735;19;20015;-80
2023/06/20 15:51:28;;;;;;;8.63;6.80;;;;;;;35.66;26.36;99146.53;12209211;19;20034;-80
2023/06/20 15:55:32;;;;;;;8.07;6.90;;;;;;;35.68;26.14;99138.31;12225378;19;20088;-79
2023/06/20 15:59:34;;;;;;;8.93;6.65;;;;;;;35.57;26.73;99140.56;12202711;19;20123;-80
2023/06/20 16:03:38;;;;;;;9.40;6.88;;;;;;;35.47;26.80;99150.13;12222586;19;20028;-80
2023/06/20 16:07:40;;;;;;;8.90;6.57;;;;;;;35.37;27.45;99140.47;12229547;19;20014;-80
2023/06/20 16:11:42;;;;;;;13.15;7.53;;;;;;;35.06;27.70;99134.81;12205876;19;20063;-80
2023/06/20 16:15:44;;;;;;;9.50;6.68;;;;;;;34.88;28.36;99135.06;12223188;19;20028;-79
2023/06/20 16:19:48;;;;;;;11.18;8.10;;;;;;;34.61;29.08;99134.22;12225133;19;20010;-80
2023/06/20 16:23:49;;;;;;;11.73;7.18;;;;;;;34.61;28.88;99128.50;12204237;19;20014;-80
2023/06/20 16:27:51;;;;;;;12.35;7.82;;;;;;;34.47;29.26;99118.84;12222263;19;20019;-78
2023/06/20 16:31:55;;;;;;;11.25;7.68;;;;;;;34.09;29.74;99125.84;12224486;19;20468;-79
2023/06/20 16:35:56;;;;;;;13.27;8.48;;;;;;;33.60;30.57;99134.50;12208241;19;20002;-79
2023/06/20 16:39:58;;;;;;;8.90;7.57;;;;;;;33.10;31.25;99132.03;12222420;19;20007;-79
2023/06/20 16:44:00;;;;;;;11.43;7.80;;;;;;;32.82;32.00;99116.72;12200584;19;20031;-79
2023/06/20 16:48:02;;;;;;;13.77;7.10;;;;;;;32.64;32.77;99110.31;12224089;19;20363;-79
2023/06/20 16:52:04;;;;;;;11.32;7.25;;;;;;;32.53;33.13;99101.00;12226947;19;20031;-79
2023/06/20 16:56:06;;;;;;;14.48;7.88;;;;;;;32.40;33.95;99104.28;12199105;19;20010;-78
2023/06/20 17:00:09;;;;;;;12.82;7.65;;;;;;;32.20;34.08;99103.97;12221514;19;20402;-80
2023/06/20 17:04:11;;;;;;;11.82;7.70;;;;;;;31.89;34.64;99102.84;12218766;19;20499;-79
2023/06/20 17:08:13;;;;;;;11.18;7.22;;;;;;;31.54;36.04;99117.94;12194014;19;20010;-80
2023/06/20 17:12:15;;;;;;;13.10;7.45;;;;;;;31.20;37.63;99121.16;12250258;19;20014;-80
2023/06/20 17:16:16;;;;;;;;;;;;;;;30.84;37.92;99106.09;12244378;19;20429;-80
2023/06/20 17:20:20;;;;;;;12.15;7.53;;;;;;;30.56;39.10;99116.16;12202506;19;19921;-80
2023/06/20 17:24:22;;;;;;;8.60;7.22;;;;;;;30.31;40.13;99124.63;12226042;19;20118;-80
2023/06/20 17:28:24;;;;;;;10.15;7.57;;;;;;;30.11;41.06;99115.56;12225010;19;20003;-80
2023/06/20 17:32:27;;;;;;;9.23;7.28;;;;;;;29.92;42.95;99099.63;12200112;19;20011;-81
2023/06/20 17:36:32;;;;;;;11.65;7.40;;;;;;;29.60;45.92;99104.25;12223921;19;20011;-81
2023/06/20 17:40:34;;;;;;;11.10;7.90;;;;;;;29.18;50.17;99103.56;12222703;19;20006;-80
2023/06/20 17:44:36;;;;;;;13.32;7.38;;;;;;;28.80;53.29;99111.28;12202071;19;20010;-80
2023/06/20 17:48:38;;;;;;;13.27;7.75;;;;;;;28.49;51.73;99108.91;12222599;19;20654;-81
2023/06/20 17:52:43;;;;;;;15.48;8.48;;;;;;;28.62;50.88;99119.59;12225092;19;20016;-80
2023/06/20 17:56:45;;;;;;;13.85;8.63;;;;;;;28.70;50.00;99131.81;12200158;19;20018;-80
2023/06/20 18:00:49;;;;;;;11.40;8.80;;;;;;;28.84;48.86;99122.66;12219728;19;20007;-80
2023/06/20 18:04:53;;;;;;;11.23;8.20;;;;;;;28.93;48.60;99131.66;12215641;19;20035;-80
2023/06/20 18:08:55;;;;;;;12.75;7.32;;;;;;;28.87;48.95;99141.72;12196700;19;20011;-79
2023/06/20 18:12:58;;;;;;;16.85;6.47;;;;;;;28.71;48.88;99149.66;12222442;19;20006;-80
2023/06/20 18:17:01;;;;;;;15.02;7.78;;;;;;;28.55;49.57;99145.00;12198676;19;20018;-80
2023/06/20 18:21:03;;;;;;;10.98;7.53;;;;;;;28.37;50.37;99166.63;12221579;19;20019;-80
2023/06/20 18:25:07;;;;;;;14.80;7.40;;;;;;;28.11;51.15;99171.16;12222990;19;20090;-81
2023/06/20 18:29:08;;;;;;;14.20;6.93;;;;;;;27.93;52.67;99161.56;12200456;19;20213;-80
2023/06/20 18:33:11;;;;;;;15.40;7.63;;;;;;;27.81;52.51;99151.31;12231899;19;20034;-82